• Join FlightAware (Why Join?)
  • Login
  • US Flag 
01:32AM EDT


 

Airport Tracker/Info


-or-


 

Live Flight TrackerFlight Track Log ✈ EJM826 ✈ 25-Aug-2013 ✈ KHOU - KHDC

Flight Track Log - Related Links

Times and Time Zones

All times are in EDT time to prevent confusion due to time zone crossing. See the EJM826 flight status page for this flight to view local times or setup timezone preferences in your user account.

Time Position Orientation Groundspeed Altitude Reporting Facility
EDT Latitude Longitude Course Direction KTS MPH feet Rate Location/Type
12:29PM 29.6267 -95.2614 79° East 167 192 700  Level Houston Center
12:30PM 29.5917 -95.2464 160° South 198 228 2,200 2,340 Climbing Houston Center
12:31PM 29.5806 -95.1492 97° East 217 250 5,900 2,340 Climbing Houston Center
12:32PM 29.5950 -95.0856 75° East 210 242 8,200 1,980 Climbing Houston Center
12:34PM 29.6069 -95.0158 79° East 222 255 10,100 1,860 Climbing Houston Center
12:35PM 29.7522 -94.7398 79° East  Level Estimated
12:35PM 29.6192 -94.9392 80° East 241 277 12,100  Level Houston Center
12:36PM 29.6347 -94.8578 78° East 258 297 13,700 1,260 Climbing Houston Center
12:37PM 29.6500 -94.7653 79° East 295 339 14,800 1,560 Climbing Houston Center
12:38PM 29.6689 -94.6503 79° East 305 351 17,000 1,740 Climbing Houston Center
12:39PM 29.6861 -94.5517 79° East 314 361 18,500 1,320 Climbing Houston Center
12:40PM 29.7022 -94.4517 79° East 319 367 19,800 1,260 Climbing Houston Center
12:41PM 29.7192 -94.3461 80° East 332 382 21,100 1,200 Climbing Houston Center
12:42PM 29.7092 -94.2389 96° East 339 390 22,300 1,140 Climbing Houston Center
12:43PM 29.6964 -94.1275 97° East 347 399 23,500 1,200 Climbing Houston Center
12:44PM 29.6858 -93.9931 95° East 355 409 24,800 1,080 Climbing Houston Center
12:45PM 29.6850 -93.8783 90° East 361 415 25,800 780 Climbing Houston Center
12:46PM 29.6831 -93.7636 91° East 361 415 26,500 720 Climbing Houston Center
12:47PM 29.6825 -93.6408 90° East 374 430 27,300 720 Climbing Houston Center
12:48PM 29.6803 -93.5178 91° East 385 443 28,000 480 Climbing Houston Center
12:49PM 29.6781 -93.3936 91° East 389 448 28,400 480 Climbing Houston Center
12:50PM 29.6767 -93.2428 91° East 394 453 29,000 480 Climbing Houston Center
12:51PM 29.6631 -93.1192 97° East 392 451 29,500 480 Climbing Houston Center
12:52PM 29.6692 -92.9956 87° East 401 461 30,000 480 Climbing Houston Center
12:53PM 29.7100 -92.8750 69° East 408 470 30,500 480 Climbing Houston Center
12:54PM 29.7503 -92.7550 69° East 405 466 31,000 480 Climbing Houston Center
12:55PM 29.7911 -92.6344 69° East 406 467 31,500 300 Climbing Houston Center
12:56PM 29.8400 -92.4900 69° East 408 470 31,700 120 Climbing Houston Center
12:57PM 29.8833 -92.3633 68° East 423 487 31,800 120 Climbing Houston Center
12:58PM 29.9258 -92.2361 69° East 428 493 32,000 240 Climbing Houston Center
12:59PM 29.9689 -92.1075 69° East 429 494 32,300 -180 Climbing Houston Center
01:00PM 30.0114 -91.9764 69° East 437 503 31,700 -1,200 Descending Houston Center
01:01PM 30.0572 -91.8422 68° East 447 514 29,900 -1,860 Descending Houston Center
01:02PM 30.1047 -91.6944 70° East 449 517 28,000 -2,400 Descending Houston Center
01:03PM 30.1522 -91.5617 67° East 449 517 25,000 -3,300 Descending Houston Center
01:04PM 30.1861 -91.4256 74° East 445 512 21,300 -3,360 Descending Houston Center
01:05PM 30.2100 -91.2961 78° East 423 487 18,200 -3,420 Descending Houston Center
01:06PM 30.2725 -91.1608 62° Northeast 401 461 14,300 -3,300 Descending Houston Center
01:07PM 30.3122 -91.0533 67° East 371 427 11,500 -2,460 Descending Houston Center
01:08PM 30.3386 -90.9717 69° East 327 376 9,900 -1,920 Descending Houston Center
01:09PM 30.3639 -90.9008 68° East 302 348 8,500 -2,100 Descending Houston Center
01:10PM 30.3911 -90.8156 70° East 276 318 6,100 -2,400 Descending Houston Center
01:11PM 30.4200 -90.7303 69° East 282 325 3,700 -2,040 Descending Houston Center
01:12PM 30.4322 -90.6961 67° East 285 328 3,100 -720 Descending Houston Center
01:12PM 30.4472 -90.6472 70° East 248 285 3,000 -240 Descending Houston Center
01:13PM 30.4572 -90.6219 65° Northeast 266 306 2,900 -540 Descending Houston Center
01:14PM 30.4819 -90.5494 68° East 252 290 2,200 -540 Descending Houston Center
01:15PM 30.5053 -90.4575 74° East 248 285 1,900 -480 Descending Houston Center
01:16PM 30.5350 -90.3958 61° Northeast 243 280 1,300 -540 Descending Houston Center
01:17PM 30.5675 -90.4364 313° West 220 253 900 -300 Descending Houston Center
01:18PM 30.5367 -90.4822 232° Southwest 212 244 800 -120 Descending Houston Center